sensor_id;sensor_type;location;lat;lon;timestamp;P1;durP1;ratioP1;P2;durP2;ratioP2
16775;SDS011;8505;49.456;8.164;2023-10-19T00:02:11;23.80;;;16.80;;
16775;SDS011;8505;49.456;8.164;2023-10-19T00:04:41;22.13;;;15.98;;
16775;SDS011;8505;49.456;8.164;2023-10-19T00:07:11;22.83;;;16.50;;
16775;SDS011;8505;49.456;8.164;2023-10-19T00:09:42;20.77;;;15.70;;
16775;SDS011;8505;49.456;8.164;2023-10-19T00:12:12;20.45;;;14.85;;
16775;SDS011;8505;49.456;8.164;2023-10-19T00:14:41;20.75;;;14.77;;
16775;SDS011;8505;49.456;8.164;2023-10-19T00:17:09;20.52;;;14.45;;
16775;SDS011;8505;49.456;8.164;2023-10-19T00:19:38;20.23;;;15.23;;
16775;SDS011;8505;49.456;8.164;2023-10-19T00:22:24;17.42;;;13.30;;
16775;SDS011;8505;49.456;8.164;2023-10-19T00:24:57;19.42;;;14.13;;
16775;SDS011;8505;49.456;8.164;2023-10-19T00:27:25;19.98;;;14.77;;
16775;SDS011;8505;49.456;8.164;2023-10-19T00:29:53;18.83;;;13.98;;
16775;SDS011;8505;49.456;8.164;2023-10-19T00:32:32;21.92;;;15.70;;
16775;SDS011;8505;49.456;8.164;2023-10-19T00:35:05;19.03;;;14.60;;
16775;SDS011;8505;49.456;8.164;2023-10-19T00:37:55;19.45;;;14.68;;
16775;SDS011;8505;49.456;8.164;2023-10-19T00:40:43;21.55;;;14.82;;
16775;SDS011;8505;49.456;8.164;2023-10-19T00:43:28;23.00;;;15.15;;
16775;SDS011;8505;49.456;8.164;2023-10-19T00:45:59;21.25;;;15.20;;
16775;SDS011;8505;49.456;8.164;2023-10-19T00:48:29;20.85;;;14.93;;
16775;SDS011;8505;49.456;8.164;2023-10-19T00:50:59;19.05;;;13.68;;
16775;SDS011;8505;49.456;8.164;2023-10-19T00:53:38;16.92;;;13.27;;
16775;SDS011;8505;49.456;8.164;2023-10-19T00:56:06;16.70;;;13.52;;
16775;SDS011;8505;49.456;8.164;2023-10-19T00:58:37;18.77;;;13.82;;
16775;SDS011;8505;49.456;8.164;2023-10-19T01:01:07;19.08;;;13.75;;
16775;SDS011;8505;49.456;8.164;2023-10-19T01:03:38;20.13;;;14.70;;
16775;SDS011;8505;49.456;8.164;2023-10-19T01:06:06;19.23;;;14.30;;
16775;SDS011;8505;49.456;8.164;2023-10-19T01:08:38;20.98;;;15.52;;
16775;SDS011;8505;49.456;8.164;2023-10-19T01:11:09;22.23;;;15.98;;
16775;SDS011;8505;49.456;8.164;2023-10-19T01:13:41;22.27;;;16.27;;
16775;SDS011;8505;49.456;8.164;2023-10-19T01:16:14;25.55;;;17.73;;
16775;SDS011;8505;49.456;8.164;2023-10-19T01:18:50;22.35;;;16.90;;
16775;SDS011;8505;49.456;8.164;2023-10-19T01:21:21;24.45;;;17.40;;
16775;SDS011;8505;49.456;8.164;2023-10-19T01:23:53;23.67;;;17.00;;
16775;SDS011;8505;49.456;8.164;2023-10-19T01:26:21;24.30;;;17.67;;
16775;SDS011;8505;49.456;8.164;2023-10-19T01:28:52;23.60;;;17.17;;
16775;SDS011;8505;49.456;8.164;2023-10-19T01:31:25;27.90;;;18.13;;
16775;SDS011;8505;49.456;8.164;2023-10-19T01:34:05;24.27;;;17.83;;
16775;SDS011;8505;49.456;8.164;2023-10-19T01:36:33;26.23;;;18.25;;
16775;SDS011;8505;49.456;8.164;2023-10-19T01:39:08;23.90;;;17.88;;
16775;SDS011;8505;49.456;8.164;2023-10-19T01:41:37;23.80;;;17.50;;
16775;SDS011;8505;49.456;8.164;2023-10-19T01:44:06;24.40;;;18.37;;
16775;SDS011;8505;49.456;8.164;2023-10-19T01:46:34;26.23;;;18.45;;
16775;SDS011;8505;49.456;8.164;2023-10-19T01:49:02;25.77;;;18.00;;
16775;SDS011;8505;49.456;8.164;2023-10-19T01:51:32;23.88;;;17.77;;
16775;SDS011;8505;49.456;8.164;2023-10-19T01:54:04;25.10;;;17.57;;
16775;SDS011;8505;49.456;8.164;2023-10-19T01:56:35;24.48;;;17.80;;
16775;SDS011;8505;49.456;8.164;2023-10-19T01:59:03;25.77;;;18.23;;
16775;SDS011;8505;49.456;8.164;2023-10-19T02:01:32;29.70;;;19.55;;
16775;SDS011;8505;49.456;8.164;2023-10-19T02:04:00;26.07;;;18.40;;
16775;SDS011;8505;49.456;8.164;2023-10-19T02:06:30;26.17;;;18.33;;
16775;SDS011;8505;49.456;8.164;2023-10-19T02:09:03;27.33;;;19.50;;
16775;SDS011;8505;49.456;8.164;2023-10-19T02:11:44;26.27;;;18.02;;
16775;SDS011;8505;49.456;8.164;2023-10-19T02:14:14;24.57;;;17.93;;
16775;SDS011;8505;49.456;8.164;2023-10-19T02:16:42;25.60;;;17.90;;
16775;SDS011;8505;49.456;8.164;2023-10-19T02:19:13;25.00;;;18.35;;
16775;SDS011;8505;49.456;8.164;2023-10-19T02:21:40;26.52;;;18.38;;
16775;SDS011;8505;49.456;8.164;2023-10-19T02:24:09;26.02;;;18.13;;
16775;SDS011;8505;49.456;8.164;2023-10-19T02:26:40;26.40;;;18.23;;
16775;SDS011;8505;49.456;8.164;2023-10-19T02:29:11;23.40;;;16.75;;
16775;SDS011;8505;49.456;8.164;2023-10-19T02:31:39;23.33;;;16.70;;
16775;SDS011;8505;49.456;8.164;2023-10-19T02:34:08;22.97;;;16.73;;
16775;SDS011;8505;49.456;8.164;2023-10-19T02:36:37;22.93;;;17.27;;
16775;SDS011;8505;49.456;8.164;2023-10-19T02:39:06;25.10;;;17.63;;
16775;SDS011;8505;49.456;8.164;2023-10-19T02:41:36;25.75;;;18.13;;
16775;SDS011;8505;49.456;8.164;2023-10-19T02:44:07;23.17;;;17.63;;
16775;SDS011;8505;49.456;8.164;2023-10-19T02:46:38;26.20;;;18.23;;
16775;SDS011;8505;49.456;8.164;2023-10-19T02:49:08;24.13;;;17.90;;
16775;SDS011;8505;49.456;8.164;2023-10-19T02:51:37;23.83;;;17.88;;
16775;SDS011;8505;49.456;8.164;2023-10-19T02:54:05;24.42;;;17.73;;
16775;SDS011;8505;49.456;8.164;2023-10-19T02:56:33;24.70;;;17.55;;
16775;SDS011;8505;49.456;8.164;2023-10-19T02:59:02;24.30;;;17.52;;
16775;SDS011;8505;49.456;8.164;2023-10-19T03:01:30;22.65;;;16.40;;
16775;SDS011;8505;49.456;8.164;2023-10-19T03:04:01;25.95;;;17.05;;
16775;SDS011;8505;49.456;8.164;2023-10-19T03:06:31;21.83;;;15.55;;
16775;SDS011;8505;49.456;8.164;2023-10-19T03:08:59;22.50;;;16.25;;
16775;SDS011;8505;49.456;8.164;2023-10-19T03:11:31;23.90;;;17.70;;
16775;SDS011;8505;49.456;8.164;2023-10-19T03:13:58;21.80;;;16.52;;
16775;SDS011;8505;49.456;8.164;2023-10-19T03:16:26;25.77;;;17.65;;
16775;SDS011;8505;49.456;8.164;2023-10-19T03:18:56;22.80;;;17.00;;
16775;SDS011;8505;49.456;8.164;2023-10-19T03:21:26;24.17;;;17.00;;
16775;SDS011;8505;49.456;8.164;2023-10-19T03:23:53;25.08;;;17.92;;
16775;SDS011;8505;49.456;8.164;2023-10-19T03:26:22;24.00;;;17.17;;
16775;SDS011;8505;49.456;8.164;2023-10-19T03:28:54;25.25;;;17.58;;
16775;SDS011;8505;49.456;8.164;2023-10-19T03:31:29;25.60;;;17.15;;
16775;SDS011;8505;49.456;8.164;2023-10-19T03:33:56;22.35;;;16.65;;
16775;SDS011;8505;49.456;8.164;2023-10-19T03:36:26;21.58;;;16.30;;
16775;SDS011;8505;49.456;8.164;2023-10-19T03:38:54;21.92;;;16.00;;
16775;SDS011;8505;49.456;8.164;2023-10-19T03:41:22;21.02;;;15.32;;
16775;SDS011;8505;49.456;8.164;2023-10-19T03:43:53;23.03;;;15.70;;
16775;SDS011;8505;49.456;8.164;2023-10-19T03:46:23;21.88;;;16.13;;
16775;SDS011;8505;49.456;8.164;2023-10-19T03:48:55;21.08;;;15.55;;
16775;SDS011;8505;49.456;8.164;2023-10-19T03:51:31;21.33;;;16.08;;
16775;SDS011;8505;49.456;8.164;2023-10-19T03:54:16;22.65;;;15.70;;
16775;SDS011;8505;49.456;8.164;2023-10-19T03:56:49;22.03;;;15.40;;
16775;SDS011;8505;49.456;8.164;2023-10-19T03:59:18;22.95;;;16.40;;
16775;SDS011;8505;49.456;8.164;2023-10-19T04:01:47;21.63;;;15.23;;
16775;SDS011;8505;49.456;8.164;2023-10-19T04:04:15;24.02;;;15.90;;
16775;SDS011;8505;49.456;8.164;2023-10-19T04:06:45;21.10;;;15.00;;
16775;SDS011;8505;49.456;8.164;2023-10-19T04:09:15;21.20;;;14.65;;
16775;SDS011;8505;49.456;8.164;2023-10-19T04:11:44;20.10;;;14.30;;
16775;SDS011;8505;49.456;8.164;2023-10-19T04:14:16;21.27;;;15.35;;
16775;SDS011;8505;49.456;8.164;2023-10-19T04:16:44;22.02;;;15.50;;
16775;SDS011;8505;49.456;8.164;2023-10-19T04:19:15;23.38;;;15.98;;
16775;SDS011;8505;49.456;8.164;2023-10-19T04:21:43;22.50;;;15.98;;
16775;SDS011;8505;49.456;8.164;2023-10-19T04:24:14;23.75;;;16.17;;
16775;SDS011;8505;49.456;8.164;2023-10-19T04:26:44;21.15;;;15.10;;
16775;SDS011;8505;49.456;8.164;2023-10-19T04:29:12;23.02;;;15.85;;
16775;SDS011;8505;49.456;8.164;2023-10-19T04:31:43;23.58;;;16.17;;
16775;SDS011;8505;49.456;8.164;2023-10-19T04:34:17;33.45;;;20.90;;
16775;SDS011;8505;49.456;8.164;2023-10-19T04:36:47;23.88;;;16.50;;
16775;SDS011;8505;49.456;8.164;2023-10-19T04:39:16;26.88;;;16.95;;
16775;SDS011;8505;49.456;8.164;2023-10-19T04:41:45;25.35;;;16.98;;
16775;SDS011;8505;49.456;8.164;2023-10-19T04:44:16;26.23;;;16.93;;
16775;SDS011;8505;49.456;8.164;2023-10-19T04:46:43;26.23;;;17.17;;
16775;SDS011;8505;49.456;8.164;2023-10-19T04:49:12;24.75;;;16.77;;
16775;SDS011;8505;49.456;8.164;2023-10-19T04:51:40;26.17;;;17.43;;
16775;SDS011;8505;49.456;8.164;2023-10-19T04:54:09;28.98;;;19.02;;
16775;SDS011;8505;49.456;8.164;2023-10-19T04:56:38;27.23;;;17.52;;
16775;SDS011;8505;49.456;8.164;2023-10-19T04:59:06;27.10;;;17.63;;
16775;SDS011;8505;49.456;8.164;2023-10-19T05:01:34;108.40;;;20.27;;
16775;SDS011;8505;49.456;8.164;2023-10-19T05:04:02;116.28;;;19.67;;
16775;SDS011;8505;49.456;8.164;2023-10-19T05:06:32;90.73;;;22.30;;
16775;SDS011;8505;49.456;8.164;2023-10-19T05:08:59;64.22;;;21.55;;
16775;SDS011;8505;49.456;8.164;2023-10-19T05:11:29;53.05;;;20.50;;
16775;SDS011;8505;49.456;8.164;2023-10-19T05:13:58;36.47;;;21.55;;
16775;SDS011;8505;49.456;8.164;2023-10-19T05:16:26;32.67;;;20.63;;
16775;SDS011;8505;49.456;8.164;2023-10-19T05:18:54;29.60;;;19.42;;
16775;SDS011;8505;49.456;8.164;2023-10-19T05:21:21;34.63;;;19.98;;
16775;SDS011;8505;49.456;8.164;2023-10-19T05:23:51;29.80;;;18.03;;
16775;SDS011;8505;49.456;8.164;2023-10-19T05:26:19;27.67;;;17.85;;
16775;SDS011;8505;49.456;8.164;2023-10-19T05:28:47;23.90;;;15.93;;
16775;SDS011;8505;49.456;8.164;2023-10-19T05:31:16;27.90;;;18.40;;
16775;SDS011;8505;49.456;8.164;2023-10-19T05:33:44;26.23;;;18.17;;
16775;SDS011;8505;49.456;8.164;2023-10-19T05:36:14;26.75;;;18.30;;
16775;SDS011;8505;49.456;8.164;2023-10-19T05:38:43;25.38;;;18.30;;
16775;SDS011;8505;49.456;8.164;2023-10-19T05:41:11;70.45;;;20.80;;
16775;SDS011;8505;49.456;8.164;2023-10-19T05:43:39;28.20;;;18.60;;
16775;SDS011;8505;49.456;8.164;2023-10-19T05:46:07;30.33;;;18.83;;
16775;SDS011;8505;49.456;8.164;2023-10-19T05:48:38;32.25;;;20.13;;
16775;SDS011;8505;49.456;8.164;2023-10-19T05:51:06;29.73;;;19.77;;
16775;SDS011;8505;49.456;8.164;2023-10-19T05:53:33;33.20;;;22.38;;
16775;SDS011;8505;49.456;8.164;2023-10-19T05:56:03;42.92;;;20.52;;
16775;SDS011;8505;49.456;8.164;2023-10-19T05:58:33;29.40;;;20.33;;
16775;SDS011;8505;49.456;8.164;2023-10-19T06:01:04;31.05;;;20.05;;
16775;SDS011;8505;49.456;8.164;2023-10-19T06:03:31;31.48;;;21.08;;
16775;SDS011;8505;49.456;8.164;2023-10-19T06:06:00;32.75;;;21.15;;
16775;SDS011;8505;49.456;8.164;2023-10-19T06:08:28;33.08;;;21.70;;
16775;SDS011;8505;49.456;8.164;2023-10-19T06:10:57;48.97;;;21.65;;
16775;SDS011;8505;49.456;8.164;2023-10-19T06:13:25;64.30;;;20.77;;
16775;SDS011;8505;49.456;8.164;2023-10-19T06:15:52;60.00;;;21.02;;
16775;SDS011;8505;49.456;8.164;2023-10-19T06:18:20;42.83;;;20.92;;
16775;SDS011;8505;49.456;8.164;2023-10-19T06:20:48;115.45;;;22.27;;
16775;SDS011;8505;49.456;8.164;2023-10-19T06:23:19;29.80;;;19.65;;
16775;SDS011;8505;49.456;8.164;2023-10-19T06:25:46;323.60;;;28.02;;
16775;SDS011;8505;49.456;8.164;2023-10-19T06:28:14;95.20;;;22.27;;
16775;SDS011;8505;49.456;8.164;2023-10-19T06:30:42;34.10;;;19.48;;
16775;SDS011;8505;49.456;8.164;2023-10-19T06:33:11;93.07;;;21.27;;
16775;SDS011;8505;49.456;8.164;2023-10-19T06:35:39;43.80;;;19.67;;
16775;SDS011;8505;49.456;8.164;2023-10-19T06:38:07;45.57;;;19.87;;
16775;SDS011;8505;49.456;8.164;2023-10-19T06:40:37;29.05;;;19.45;;
16775;SDS011;8505;49.456;8.164;2023-10-19T06:43:05;28.73;;;19.50;;
16775;SDS011;8505;49.456;8.164;2023-10-19T06:45:33;27.98;;;18.88;;
16775;SDS011;8505;49.456;8.164;2023-10-19T06:48:01;34.80;;;18.98;;
16775;SDS011;8505;49.456;8.164;2023-10-19T06:50:30;95.05;;;18.52;;
16775;SDS011;8505;49.456;8.164;2023-10-19T06:52:58;27.45;;;18.42;;
16775;SDS011;8505;49.456;8.164;2023-10-19T06:55:26;40.17;;;17.23;;
16775;SDS011;8505;49.456;8.164;2023-10-19T06:57:55;42.28;;;18.30;;
16775;SDS011;8505;49.456;8.164;2023-10-19T07:00:24;24.70;;;18.08;;
16775;SDS011;8505;49.456;8.164;2023-10-19T07:02:54;34.85;;;17.35;;
16775;SDS011;8505;49.456;8.164;2023-10-19T07:05:23;23.65;;;17.45;;
16775;SDS011;8505;49.456;8.164;2023-10-19T07:07:52;26.55;;;18.45;;
16775;SDS011;8505;49.456;8.164;2023-10-19T07:10:21;26.00;;;17.92;;
16775;SDS011;8505;49.456;8.164;2023-10-19T07:12:51;25.55;;;17.50;;
16775;SDS011;8505;49.456;8.164;2023-10-19T07:15:22;46.45;;;17.30;;
16775;SDS011;8505;49.456;8.164;2023-10-19T07:17:52;35.47;;;19.43;;
16775;SDS011;8505;49.456;8.164;2023-10-19T07:20:21;28.83;;;19.67;;
16775;SDS011;8505;49.456;8.164;2023-10-19T07:22:52;28.35;;;18.50;;
16775;SDS011;8505;49.456;8.164;2023-10-19T07:25:20;29.23;;;21.80;;
16775;SDS011;8505;49.456;8.164;2023-10-19T07:27:48;31.95;;;23.88;;
16775;SDS011;8505;49.456;8.164;2023-10-19T07:30:17;29.92;;;19.50;;
16775;SDS011;8505;49.456;8.164;2023-10-19T07:32:49;33.10;;;20.10;;
16775;SDS011;8505;49.456;8.164;2023-10-19T07:35:21;185.43;;;22.73;;
16775;SDS011;8505;49.456;8.164;2023-10-19T07:37:49;30.25;;;18.77;;
16775;SDS011;8505;49.456;8.164;2023-10-19T07:40:17;36.22;;;17.63;;
16775;SDS011;8505;49.456;8.164;2023-10-19T07:42:45;47.28;;;18.50;;
16775;SDS011;8505;49.456;8.164;2023-10-19T07:45:18;33.22;;;19.25;;
16775;SDS011;8505;49.456;8.164;2023-10-19T07:47:46;31.10;;;18.73;;
16775;SDS011;8505;49.456;8.164;2023-10-19T07:50:16;25.23;;;17.85;;
16775;SDS011;8505;49.456;8.164;2023-10-19T07:52:44;28.05;;;18.02;;
16775;SDS011;8505;49.456;8.164;2023-10-19T07:55:14;27.70;;;16.38;;
16775;SDS011;8505;49.456;8.164;2023-10-19T07:57:42;69.93;;;18.88;;
16775;SDS011;8505;49.456;8.164;2023-10-19T08:00:11;27.08;;;18.33;;
16775;SDS011;8505;49.456;8.164;2023-10-19T08:02:40;110.35;;;18.83;;
16775;SDS011;8505;49.456;8.164;2023-10-19T08:05:11;95.60;;;18.30;;
16775;SDS011;8505;49.456;8.164;2023-10-19T08:07:41;49.30;;;18.58;;
16775;SDS011;8505;49.456;8.164;2023-10-19T08:10:10;113.63;;;20.63;;
16775;SDS011;8505;49.456;8.164;2023-10-19T08:12:39;82.27;;;20.00;;
16775;SDS011;8505;49.456;8.164;2023-10-19T08:15:08;130.15;;;20.65;;
16775;SDS011;8505;49.456;8.164;2023-10-19T08:17:38;30.15;;;18.45;;
16775;SDS011;8505;49.456;8.164;2023-10-19T08:20:07;35.20;;;16.70;;
16775;SDS011;8505;49.456;8.164;2023-10-19T08:22:43;44.03;;;15.35;;
16775;SDS011;8505;49.456;8.164;2023-10-19T08:25:13;48.35;;;15.52;;
16775;SDS011;8505;49.456;8.164;2023-10-19T08:27:41;18.48;;;14.27;;
16775;SDS011;8505;49.456;8.164;2023-10-19T08:30:14;45.15;;;14.07;;
16775;SDS011;8505;49.456;8.164;2023-10-19T08:32:47;67.47;;;13.57;;
16775;SDS011;8505;49.456;8.164;2023-10-19T08:35:15;29.02;;;13.32;;
16775;SDS011;8505;49.456;8.164;2023-10-19T08:37:46;46.87;;;15.47;;
16775;SDS011;8505;49.456;8.164;2023-10-19T08:40:14;35.55;;;18.50;;
16775;SDS011;8505;49.456;8.164;2023-10-19T08:42:44;79.55;;;23.17;;
16775;SDS011;8505;49.456;8.164;2023-10-19T08:45:12;72.97;;;20.42;;
16775;SDS011;8505;49.456;8.164;2023-10-19T08:47:40;30.70;;;17.92;;
16775;SDS011;8505;49.456;8.164;2023-10-19T08:50:14;39.00;;;17.48;;
16775;SDS011;8505;49.456;8.164;2023-10-19T08:52:42;57.33;;;18.33;;
16775;SDS011;8505;49.456;8.164;2023-10-19T08:55:12;33.30;;;17.17;;
16775;SDS011;8505;49.456;8.164;2023-10-19T08:57:40;55.90;;;17.85;;
16775;SDS011;8505;49.456;8.164;2023-10-19T09:00:09;57.42;;;17.92;;
16775;SDS011;8505;49.456;8.164;2023-10-19T09:02:39;102.63;;;18.08;;
16775;SDS011;8505;49.456;8.164;2023-10-19T09:05:06;151.45;;;19.60;;
16775;SDS011;8505;49.456;8.164;2023-10-19T09:07:35;32.83;;;17.73;;
16775;SDS011;8505;49.456;8.164;2023-10-19T09:10:06;86.82;;;18.02;;
16775;SDS011;8505;49.456;8.164;2023-10-19T09:12:42;81.90;;;18.80;;
16775;SDS011;8505;49.456;8.164;2023-10-19T09:15:17;39.35;;;17.35;;
16775;SDS011;8505;49.456;8.164;2023-10-19T09:17:49;98.75;;;18.88;;
16775;SDS011;8505;49.456;8.164;2023-10-19T09:20:21;25.80;;;17.55;;
16775;SDS011;8505;49.456;8.164;2023-10-19T09:22:53;158.45;;;22.25;;
16775;SDS011;8505;49.456;8.164;2023-10-19T09:25:24;56.67;;;19.73;;
16775;SDS011;8505;49.456;8.164;2023-10-19T09:27:53;43.28;;;19.25;;
16775;SDS011;8505;49.456;8.164;2023-10-19T09:30:21;26.58;;;17.77;;
16775;SDS011;8505;49.456;8.164;2023-10-19T09:32:52;33.00;;;18.50;;
16775;SDS011;8505;49.456;8.164;2023-10-19T09:35:22;36.17;;;19.38;;
16775;SDS011;8505;49.456;8.164;2023-10-19T09:37:54;30.48;;;17.77;;
16775;SDS011;8505;49.456;8.164;2023-10-19T09:40:22;30.23;;;19.23;;
16775;SDS011;8505;49.456;8.164;2023-10-19T09:42:52;29.33;;;18.23;;
16775;SDS011;8505;49.456;8.164;2023-10-19T09:45:24;34.53;;;19.50;;
16775;SDS011;8505;49.456;8.164;2023-10-19T09:47:56;28.90;;;19.15;;
16775;SDS011;8505;49.456;8.164;2023-10-19T09:50:30;40.25;;;20.17;;
16775;SDS011;8505;49.456;8.164;2023-10-19T09:52:58;29.73;;;19.67;;
16775;SDS011;8505;49.456;8.164;2023-10-19T09:55:28;27.50;;;17.80;;
16775;SDS011;8505;49.456;8.164;2023-10-19T09:58:03;26.30;;;17.98;;
16775;SDS011;8505;49.456;8.164;2023-10-19T10:00:34;24.60;;;17.27;;
16775;SDS011;8505;49.456;8.164;2023-10-19T10:03:03;28.45;;;18.23;;
16775;SDS011;8505;49.456;8.164;2023-10-19T10:05:47;27.58;;;19.00;;
16775;SDS011;8505;49.456;8.164;2023-10-19T10:08:30;26.65;;;17.92;;
16775;SDS011;8505;49.456;8.164;2023-10-19T10:11:00;13.73;;;8.02;;
16775;SDS011;8505;49.456;8.164;2023-10-19T10:13:45;17.25;;;10.32;;
16775;SDS011;8505;49.456;8.164;2023-10-19T10:16:18;25.58;;;16.17;;
16775;SDS011;8505;49.456;8.164;2023-10-19T10:18:48;24.67;;;16.27;;
16775;SDS011;8505;49.456;8.164;2023-10-19T10:21:18;23.25;;;15.80;;
16775;SDS011;8505;49.456;8.164;2023-10-19T10:23:48;23.40;;;15.63;;
16775;SDS011;8505;49.456;8.164;2023-10-19T10:26:17;22.05;;;14.63;;
16775;SDS011;8505;49.456;8.164;2023-10-19T10:28:50;23.15;;;15.98;;
16775;SDS011;8505;49.456;8.164;2023-10-19T10:31:41;23.45;;;14.82;;
16775;SDS011;8505;49.456;8.164;2023-10-19T10:34:10;24.67;;;16.25;;
16775;SDS011;8505;49.456;8.164;2023-10-19T10:36:57;37.00;;;20.07;;
16775;SDS011;8505;49.456;8.164;2023-10-19T10:39:29;30.02;;;18.58;;
16775;SDS011;8505;49.456;8.164;2023-10-19T10:41:57;25.17;;;16.65;;
16775;SDS011;8505;49.456;8.164;2023-10-19T10:44:37;27.50;;;16.65;;
16775;SDS011;8505;49.456;8.164;2023-10-19T10:47:07;23.58;;;16.83;;
16775;SDS011;8505;49.456;8.164;2023-10-19T10:49:52;24.50;;;16.48;;
16775;SDS011;8505;49.456;8.164;2023-10-19T10:52:24;21.77;;;16.13;;
16775;SDS011;8505;49.456;8.164;2023-10-19T10:54:53;23.40;;;16.33;;
16775;SDS011;8505;49.456;8.164;2023-10-19T10:57:21;21.87;;;16.40;;
16775;SDS011;8505;49.456;8.164;2023-10-19T11:00:01;21.00;;;15.37;;
16775;SDS011;8505;49.456;8.164;2023-10-19T11:02:31;21.23;;;15.27;;
16775;SDS011;8505;49.456;8.164;2023-10-19T11:04:59;19.33;;;14.20;;
16775;SDS011;8505;49.456;8.164;2023-10-19T11:07:27;21.50;;;15.50;;
16775;SDS011;8505;49.456;8.164;2023-10-19T11:09:56;20.25;;;14.70;;
16775;SDS011;8505;49.456;8.164;2023-10-19T11:12:24;23.08;;;15.88;;
16775;SDS011;8505;49.456;8.164;2023-10-19T11:14:52;23.13;;;16.63;;
16775;SDS011;8505;49.456;8.164;2023-10-19T11:17:22;19.88;;;14.70;;
16775;SDS011;8505;49.456;8.164;2023-10-19T11:19:54;23.45;;;16.05;;
16775;SDS011;8505;49.456;8.164;2023-10-19T11:22:23;22.77;;;16.60;;
16775;SDS011;8505;49.456;8.164;2023-10-19T11:24:52;23.02;;;16.33;;
16775;SDS011;8505;49.456;8.164;2023-10-19T11:27:24;22.08;;;15.77;;
16775;SDS011;8505;49.456;8.164;2023-10-19T11:29:55;27.23;;;16.88;;
16775;SDS011;8505;49.456;8.164;2023-10-19T11:32:25;21.73;;;15.63;;
16775;SDS011;8505;49.456;8.164;2023-10-19T11:34:53;22.48;;;16.60;;
16775;SDS011;8505;49.456;8.164;2023-10-19T11:37:22;21.92;;;15.45;;
16775;SDS011;8505;49.456;8.164;2023-10-19T11:39:50;22.00;;;14.40;;
16775;SDS011;8505;49.456;8.164;2023-10-19T11:42:18;19.45;;;14.23;;
16775;SDS011;8505;49.456;8.164;2023-10-19T11:44:46;21.42;;;15.25;;
16775;SDS011;8505;49.456;8.164;2023-10-19T11:47:14;20.37;;;14.43;;
16775;SDS011;8505;49.456;8.164;2023-10-19T11:49:43;18.67;;;14.10;;
16775;SDS011;8505;49.456;8.164;2023-10-19T11:52:10;21.27;;;15.38;;
16775;SDS011;8505;49.456;8.164;2023-10-19T11:54:39;21.00;;;15.32;;
16775;SDS011;8505;49.456;8.164;2023-10-19T11:57:06;21.65;;;14.98;;
16775;SDS011;8505;49.456;8.164;2023-10-19T11:59:34;20.23;;;14.55;;
16775;SDS011;8505;49.456;8.164;2023-10-19T12:02:02;18.83;;;15.02;;
16775;SDS011;8505;49.456;8.164;2023-10-19T12:04:33;21.37;;;17.07;;
16775;SDS011;8505;49.456;8.164;2023-10-19T12:07:04;21.17;;;15.95;;
16775;SDS011;8505;49.456;8.164;2023-10-19T12:09:32;25.27;;;18.02;;
16775;SDS011;8505;49.456;8.164;2023-10-19T12:11:59;22.25;;;16.70;;
16775;SDS011;8505;49.456;8.164;2023-10-19T12:14:27;22.58;;;16.90;;
16775;SDS011;8505;49.456;8.164;2023-10-19T12:16:56;32.22;;;20.30;;
16775;SDS011;8505;49.456;8.164;2023-10-19T12:19:27;26.40;;;19.05;;
16775;SDS011;8505;49.456;8.164;2023-10-19T12:21:55;26.88;;;19.08;;
16775;SDS011;8505;49.456;8.164;2023-10-19T12:24:25;25.05;;;18.25;;
16775;SDS011;8505;49.456;8.164;2023-10-19T12:26:55;24.98;;;18.13;;
16775;SDS011;8505;49.456;8.164;2023-10-19T12:29:23;23.90;;;17.23;;
16775;SDS011;8505;49.456;8.164;2023-10-19T12:31:52;22.30;;;17.20;;
16775;SDS011;8505;49.456;8.164;2023-10-19T12:34:20;21.88;;;16.67;;
16775;SDS011;8505;49.456;8.164;2023-10-19T12:36:49;22.80;;;16.73;;
16775;SDS011;8505;49.456;8.164;2023-10-19T12:39:18;19.60;;;15.40;;
16775;SDS011;8505;49.456;8.164;2023-10-19T12:42:01;19.27;;;14.87;;
16775;SDS011;8505;49.456;8.164;2023-10-19T12:44:29;19.90;;;14.77;;
16775;SDS011;8505;49.456;8.164;2023-10-19T12:47:05;18.00;;;14.18;;
16775;SDS011;8505;49.456;8.164;2023-10-19T12:49:36;31.70;;;23.85;;
16775;SDS011;8505;49.456;8.164;2023-10-19T12:52:04;20.33;;;15.02;;
16775;SDS011;8505;49.456;8.164;2023-10-19T12:54:33;20.35;;;14.90;;
16775;SDS011;8505;49.456;8.164;2023-10-19T12:57:04;20.80;;;15.25;;
16775;SDS011;8505;49.456;8.164;2023-10-19T12:59:34;22.55;;;17.38;;
16775;SDS011;8505;49.456;8.164;2023-10-19T13:02:04;19.23;;;14.70;;
16775;SDS011;8505;49.456;8.164;2023-10-19T13:04:35;19.15;;;14.43;;
16775;SDS011;8505;49.456;8.164;2023-10-19T13:07:03;40.38;;;28.05;;
16775;SDS011;8505;49.456;8.164;2023-10-19T13:09:32;61.73;;;39.87;;
16775;SDS011;8505;49.456;8.164;2023-10-19T13:12:04;27.65;;;19.35;;
16775;SDS011;8505;49.456;8.164;2023-10-19T13:14:34;43.92;;;28.60;;
16775;SDS011;8505;49.456;8.164;2023-10-19T13:17:02;26.05;;;18.25;;
16775;SDS011;8505;49.456;8.164;2023-10-19T13:19:30;25.58;;;18.60;;
16775;SDS011;8505;49.456;8.164;2023-10-19T13:21:58;19.88;;;14.65;;
16775;SDS011;8505;49.456;8.164;2023-10-19T13:24:31;22.17;;;16.52;;
16775;SDS011;8505;49.456;8.164;2023-10-19T13:27:08;32.30;;;22.30;;
16775;SDS011;8505;49.456;8.164;2023-10-19T13:29:36;30.42;;;21.23;;
16775;SDS011;8505;49.456;8.164;2023-10-19T13:32:08;23.73;;;15.93;;
16775;SDS011;8505;49.456;8.164;2023-10-19T13:34:36;17.95;;;13.57;;
16775;SDS011;8505;49.456;8.164;2023-10-19T13:37:06;15.57;;;12.07;;
16775;SDS011;8505;49.456;8.164;2023-10-19T13:39:34;16.38;;;12.48;;
16775;SDS011;8505;49.456;8.164;2023-10-19T13:42:02;19.67;;;13.93;;
16775;SDS011;8505;49.456;8.164;2023-10-19T13:44:32;33.15;;;23.88;;
16775;SDS011;8505;49.456;8.164;2023-10-19T13:47:00;40.58;;;29.92;;
16775;SDS011;8505;49.456;8.164;2023-10-19T13:49:31;20.27;;;16.00;;
16775;SDS011;8505;49.456;8.164;2023-10-19T13:51:59;22.02;;;17.08;;
16775;SDS011;8505;49.456;8.164;2023-10-19T13:54:27;22.25;;;16.15;;
16775;SDS011;8505;49.456;8.164;2023-10-19T13:56:55;25.53;;;17.80;;
16775;SDS011;8505;49.456;8.164;2023-10-19T13:59:23;21.83;;;16.75;;
16775;SDS011;8505;49.456;8.164;2023-10-19T14:01:52;23.48;;;17.08;;
16775;SDS011;8505;49.456;8.164;2023-10-19T14:04:20;25.50;;;18.45;;
16775;SDS011;8505;49.456;8.164;2023-10-19T14:06:49;23.73;;;17.55;;
16775;SDS011;8505;49.456;8.164;2023-10-19T14:09:17;26.67;;;18.33;;
16775;SDS011;8505;49.456;8.164;2023-10-19T14:11:45;25.23;;;18.80;;
16775;SDS011;8505;49.456;8.164;2023-10-19T14:14:13;24.65;;;18.45;;
16775;SDS011;8505;49.456;8.164;2023-10-19T14:16:41;27.60;;;19.23;;
16775;SDS011;8505;49.456;8.164;2023-10-19T14:19:14;24.57;;;18.43;;
16775;SDS011;8505;49.456;8.164;2023-10-19T14:21:44;29.15;;;20.40;;
16775;SDS011;8505;49.456;8.164;2023-10-19T14:24:13;29.83;;;21.02;;
16775;SDS011;8505;49.456;8.164;2023-10-19T14:26:43;33.53;;;22.90;;
16775;SDS011;8505;49.456;8.164;2023-10-19T14:29:12;33.17;;;24.40;;
16775;SDS011;8505;49.456;8.164;2023-10-19T14:31:40;35.70;;;25.98;;
16775;SDS011;8505;49.456;8.164;2023-10-19T14:34:08;35.45;;;24.85;;
16775;SDS011;8505;49.456;8.164;2023-10-19T14:36:38;31.75;;;21.70;;
16775;SDS011;8505;49.456;8.164;2023-10-19T14:39:05;31.90;;;21.92;;
16775;SDS011;8505;49.456;8.164;2023-10-19T14:41:35;35.75;;;24.08;;
16775;SDS011;8505;49.456;8.164;2023-10-19T14:44:03;33.28;;;22.40;;
16775;SDS011;8505;49.456;8.164;2023-10-19T14:46:33;32.97;;;22.13;;
16775;SDS011;8505;49.456;8.164;2023-10-19T14:49:01;31.35;;;21.38;;
16775;SDS011;8505;49.456;8.164;2023-10-19T14:51:28;28.67;;;20.30;;